Time;durP1;ratioP1;P1;durP2;ratioP2;P2;SDS_P1;SDS_P2;PMS_P1;PMS_P2;Temp;Humidity;BMP_temperature;BMP_pressure;BME280_temperature;BME280_humidity;BME280_pressure;Samples;Min_cycle;Max_cycle;Signal;HPM_P1;HPM_P2
2021/10/24 00:01:15;;;;;;;67.40;12.20;;;;;;;;;;4983599;28;20473;-96
2021/10/24 00:03:41;;;;;;;67.77;12.23;;;;;;;;;;4982768;28;20981;-95
2021/10/24 00:06:08;;;;;;;66.57;12.40;;;;;;;;;;4979883;28;20470;-93
2021/10/24 00:08:34;;;;;;;70.03;12.83;;;;;;;;;;4965031;29;20463;-93
2021/10/24 00:11:01;;;;;;;68.10;12.17;;;;;;;;;;4963636;29;20478;-95
2021/10/24 00:13:29;;;;;;;67.37;11.23;;;;;;;;;;4977938;28;20454;-94
2021/10/24 00:15:55;;;;;;;68.70;12.40;;;;;;;;;;4983314;28;20470;-94
2021/10/24 00:18:24;;;;;;;67.03;11.80;;;;;;;;;;4983499;28;20505;-95
2021/10/24 00:20:51;;;;;;;68.37;11.53;;;;;;;;;;4983557;28;20450;-93
2021/10/24 00:23:18;;;;;;;68.13;12.00;;;;;;;;;;4984313;28;20456;-93
2021/10/24 00:25:45;;;;;;;66.97;11.63;;;;;;;;;;4984519;28;20477;-96
2021/10/24 00:28:12;;;;;;;66.80;11.47;;;;;;;;;;4984108;28;20465;-94
2021/10/24 00:30:46;;;;;;;66.57;10.80;;;;;;;;;;4981964;28;20493;-96
2021/10/24 00:33:12;;;;;;;66.20;11.20;;;;;;;;;;4983892;28;20465;-93
2021/10/24 00:35:40;;;;;;;68.67;11.90;;;;;;;;;;4985629;28;20453;-92
2021/10/24 00:38:07;;;;;;;66.07;11.30;;;;;;;;;;4984786;28;20536;-93
2021/10/24 00:40:33;;;;;;;66.17;10.77;;;;;;;;;;4983688;28;21391;-94
2021/10/24 00:43:01;;;;;;;67.20;11.17;;;;;;;;;;4980061;28;20464;-94
2021/10/24 00:45:28;;;;;;;68.07;11.23;;;;;;;;;;4986413;28;20465;-96
2021/10/24 00:47:55;;;;;;;65.93;11.10;;;;;;;;;;4988087;28;20551;-96
2021/10/24 00:50:25;;;;;;;70.03;10.80;;;;;;;;;;4987172;28;20445;-96
2021/10/24 00:52:54;;;;;;;70.17;11.00;;;;;;;;;;4968885;28;20525;-96
2021/10/24 00:55:24;;;;;;;68.07;10.73;;;;;;;;;;4984908;28;20481;-96
2021/10/24 00:57:54;;;;;;;68.70;10.50;;;;;;;;;;4993041;28;20492;-96
2021/10/24 01:00:22;;;;;;;65.37;10.30;;;;;;;;;;5005550;28;20468;-96
2021/10/24 01:02:49;;;;;;;64.87;10.33;;;;;;;;;;4991894;28;20436;-96
2021/10/24 01:05:16;;;;;;;67.17;10.77;;;;;;;;;;4993791;28;20473;-96
2021/10/24 01:07:44;;;;;;;65.80;9.97;;;;;;;;;;4994540;28;20444;-96
2021/10/24 01:10:16;;;;;;;65.67;11.13;;;;;;;;;;4994108;28;20475;-95
2021/10/24 01:12:43;;;;;;;65.77;10.87;;;;;;;;;;5000009;28;20464;-95
2021/10/24 01:15:10;;;;;;;65.40;11.23;;;;;;;;;;4997414;28;20459;-96
2021/10/24 01:17:36;;;;;;;65.80;10.70;;;;;;;;;;4989826;28;20487;-94
2021/10/24 01:20:03;;;;;;;66.80;10.97;;;;;;;;;;4990629;28;20459;-95
2021/10/24 01:22:34;;;;;;;66.13;11.10;;;;;;;;;;4988803;28;20451;-93
2021/10/24 01:25:01;;;;;;;65.63;10.30;;;;;;;;;;4988636;28;20474;-93
2021/10/24 01:27:28;;;;;;;65.87;10.57;;;;;;;;;;4986128;28;20967;-93
2021/10/24 01:29:55;;;;;;;65.07;10.50;;;;;;;;;;4987632;28;20478;-95
2021/10/24 01:32:29;;;;;;;67.07;10.83;;;;;;;;;;4990129;28;20477;-96
2021/10/24 01:34:58;;;;;;;66.50;10.60;;;;;;;;;;4990469;28;20471;-94
2021/10/24 01:37:30;;;;;;;66.43;11.30;;;;;;;;;;4991167;28;20495;-95
2021/10/24 01:39:58;;;;;;;65.97;10.47;;;;;;;;;;4983725;28;20478;-91
2021/10/24 01:42:24;;;;;;;65.27;10.70;;;;;;;;;;4987746;28;20452;-93
2021/10/24 01:44:55;;;;;;;66.07;11.07;;;;;;;;;;4989189;28;20445;-96
2021/10/24 01:47:23;;;;;;;68.40;10.97;;;;;;;;;;4988370;28;20489;-96
2021/10/24 01:49:50;;;;;;;66.10;10.70;;;;;;;;;;5004392;23;20482;-94
2021/10/24 01:52:17;;;;;;;65.00;10.53;;;;;;;;;;5007992;28;20446;-92
2021/10/24 01:54:44;;;;;;;66.70;10.80;;;;;;;;;;5007837;28;20486;-96
2021/10/24 01:57:14;;;;;;;66.70;11.00;;;;;;;;;;5008493;28;20462;-96
2021/10/24 01:59:50;;;;;;;67.00;10.97;;;;;;;;;;5007826;28;20458;-95
2021/10/24 02:02:17;;;;;;;67.63;10.90;;;;;;;;;;5006153;28;20445;-93
2021/10/24 02:04:44;;;;;;;65.60;10.67;;;;;;;;;;5005883;28;20460;-93
2021/10/24 02:07:11;;;;;;;65.37;10.83;;;;;;;;;;5008504;28;21093;-93
2021/10/24 02:09:37;;;;;;;66.40;11.13;;;;;;;;;;5006686;28;20454;-92
2021/10/24 02:12:04;;;;;;;67.07;11.30;;;;;;;;;;5006931;28;20514;-92
2021/10/24 02:14:32;;;;;;;69.33;10.53;;;;;;;;;;5006931;28;20525;-95
2021/10/24 02:17:00;;;;;;;66.50;11.87;;;;;;;;;;5007353;28;20467;-96
2021/10/24 02:19:27;;;;;;;72.30;11.40;;;;;;;;;;5005240;28;20504;-94
2021/10/24 02:21:53;;;;;;;65.90;10.83;;;;;;;;;;5008444;28;20455;-91
2021/10/24 02:24:20;;;;;;;68.53;11.53;;;;;;;;;;5008425;28;21005;-92
2021/10/24 02:26:47;;;;;;;67.27;11.30;;;;;;;;;;5005625;28;20504;-94
2021/10/24 02:29:13;;;;;;;68.33;11.63;;;;;;;;;;5003232;28;20429;-95
2021/10/24 02:31:41;;;;;;;65.70;10.67;;;;;;;;;;4994601;28;20488;-94
2021/10/24 02:34:08;;;;;;;71.00;11.37;;;;;;;;;;5007164;28;20466;-95
2021/10/24 02:36:38;;;;;;;66.47;10.60;;;;;;;;;;4991204;28;20478;-94
2021/10/24 02:39:05;;;;;;;68.00;11.50;;;;;;;;;;5006698;28;20492;-95
2021/10/24 02:41:31;;;;;;;67.60;11.70;;;;;;;;;;5001981;28;20493;-95
2021/10/24 02:43:59;;;;;;;67.23;12.23;;;;;;;;;;4998962;28;20450;-94
2021/10/24 02:46:26;;;;;;;66.80;11.90;;;;;;;;;;4987492;28;20917;-94
2021/10/24 02:49:01;;;;;;;69.90;11.63;;;;;;;;;;5004968;28;20462;-95
2021/10/24 02:51:28;;;;;;;68.30;11.47;;;;;;;;;;5004324;28;20456;-95
2021/10/24 02:53:56;;;;;;;68.00;12.30;;;;;;;;;;5003820;28;20521;-96
2021/10/24 02:56:22;;;;;;;66.20;11.30;;;;;;;;;;5000804;28;20454;-93
2021/10/24 02:58:49;;;;;;;66.37;11.50;;;;;;;;;;5002258;28;20475;-92
2021/10/24 03:01:15;;;;;;;76.23;12.00;;;;;;;;;;4998573;28;20465;-94
2021/10/24 03:03:42;;;;;;;66.47;11.90;;;;;;;;;;4999655;28;20480;-92
2021/10/24 03:06:10;;;;;;;67.27;11.90;;;;;;;;;;5001406;28;20481;-94
2021/10/24 03:08:37;;;;;;;66.73;11.07;;;;;;;;;;5003464;28;20513;-94
2021/10/24 03:11:03;;;;;;;67.80;11.90;;;;;;;;;;5001014;28;20451;-96
2021/10/24 03:13:30;;;;;;;67.13;12.30;;;;;;;;;;5000791;28;20488;-92
2021/10/24 03:15:56;;;;;;;69.17;12.10;;;;;;;;;;5001548;28;20461;-94
2021/10/24 03:18:23;;;;;;;69.40;12.40;;;;;;;;;;4990251;28;20497;-95
2021/10/24 03:20:54;;;;;;;68.27;11.77;;;;;;;;;;5003176;28;20458;-95
2021/10/24 03:23:22;;;;;;;67.73;11.10;;;;;;;;;;5006221;28;20513;-96
2021/10/24 03:25:49;;;;;;;67.00;11.60;;;;;;;;;;4996079;28;20463;-94
2021/10/24 03:28:15;;;;;;;67.57;12.07;;;;;;;;;;4991991;28;20450;-92
2021/10/24 03:30:42;;;;;;;68.90;11.33;;;;;;;;;;4995528;28;20484;-94
2021/10/24 03:33:10;;;;;;;66.90;11.67;;;;;;;;;;5003578;28;20562;-94
2021/10/24 03:35:37;;;;;;;69.20;11.80;;;;;;;;;;5004274;28;20460;-93
2021/10/24 03:38:04;;;;;;;68.17;11.80;;;;;;;;;;5004892;28;20482;-94
2021/10/24 03:40:32;;;;;;;67.27;11.60;;;;;;;;;;5005603;28;20518;-94
2021/10/24 03:43:01;;;;;;;67.17;11.47;;;;;;;;;;5006034;28;20481;-94
2021/10/24 03:45:28;;;;;;;69.53;11.13;;;;;;;;;;5005182;28;20461;-96
2021/10/24 03:47:54;;;;;;;67.50;11.97;;;;;;;;;;5001140;28;20461;-96
2021/10/24 03:50:30;;;;;;;76.13;12.03;;;;;;;;;;5004619;28;20528;-95
2021/10/24 03:52:59;;;;;;;69.07;11.60;;;;;;;;;;5006734;28;20474;-96
2021/10/24 03:55:28;;;;;;;69.83;11.50;;;;;;;;;;5006529;28;20497;-95
2021/10/24 03:58:01;;;;;;;68.90;12.40;;;;;;;;;;5006249;28;20522;-96
2021/10/24 04:00:27;;;;;;;70.90;12.10;;;;;;;;;;5007018;28;20501;-95
2021/10/24 04:02:55;;;;;;;67.80;12.03;;;;;;;;;;5005048;28;20462;-94
2021/10/24 04:05:23;;;;;;;66.70;11.90;;;;;;;;;;5005743;28;20466;-94
2021/10/24 04:07:51;;;;;;;69.97;12.50;;;;;;;;;;5004427;28;20459;-96
2021/10/24 04:10:19;;;;;;;67.57;12.10;;;;;;;;;;5003666;28;20439;-91
2021/10/24 04:12:46;;;;;;;70.70;12.47;;;;;;;;;;5004310;28;20450;-93
2021/10/24 04:15:14;;;;;;;68.10;11.93;;;;;;;;;;5005341;28;20445;-96
2021/10/24 04:17:41;;;;;;;80.03;12.70;;;;;;;;;;5004232;28;20473;-93
2021/10/24 04:20:08;;;;;;;69.00;12.77;;;;;;;;;;5003795;28;20524;-93
2021/10/24 04:22:39;;;;;;;71.40;13.90;;;;;;;;;;5001384;28;20504;-96
2021/10/24 04:25:07;;;;;;;71.40;13.40;;;;;;;;;;5003105;28;20481;-93
2021/10/24 04:27:33;;;;;;;72.27;12.87;;;;;;;;;;5003096;28;20441;-92
2021/10/24 04:30:00;;;;;;;69.10;12.77;;;;;;;;;;5006182;28;20476;-92
2021/10/24 04:32:29;;;;;;;69.83;13.87;;;;;;;;;;5004670;28;20472;-93
2021/10/24 04:34:56;;;;;;;73.27;14.10;;;;;;;;;;4987238;28;20460;-94
2021/10/24 04:37:22;;;;;;;72.50;13.53;;;;;;;;;;5005015;28;20496;-93
2021/10/24 04:39:49;;;;;;;69.80;13.20;;;;;;;;;;5002914;28;20524;-94
2021/10/24 04:42:15;;;;;;;72.67;13.63;;;;;;;;;;5003737;28;20860;-93
2021/10/24 04:44:43;;;;;;;68.23;13.00;;;;;;;;;;5004452;28;20448;-95
2021/10/24 04:47:10;;;;;;;69.07;13.67;;;;;;;;;;5009106;28;20494;-93
2021/10/24 04:49:37;;;;;;;70.47;13.87;;;;;;;;;;5011423;28;20462;-93
2021/10/24 04:52:04;;;;;;;69.80;14.23;;;;;;;;;;5004699;28;20871;-93
2021/10/24 04:54:31;;;;;;;70.87;12.53;;;;;;;;;;5003900;28;20887;-92
2021/10/24 04:56:58;;;;;;;71.30;13.73;;;;;;;;;;5002398;28;20466;-94
2021/10/24 04:59:25;;;;;;;70.77;13.20;;;;;;;;;;5002550;28;20526;-94
2021/10/24 05:01:51;;;;;;;69.80;13.80;;;;;;;;;;5003003;28;20559;-93
2021/10/24 05:04:18;;;;;;;70.70;13.90;;;;;;;;;;5002579;28;20480;-95
2021/10/24 05:06:46;;;;;;;69.07;13.43;;;;;;;;;;5004025;28;20548;-94
2021/10/24 05:09:13;;;;;;;71.90;15.07;;;;;;;;;;5003092;28;20453;-91
2021/10/24 05:11:39;;;;;;;72.63;14.17;;;;;;;;;;5004092;28;20474;-96
2021/10/24 05:14:07;;;;;;;71.60;14.77;;;;;;;;;;5002849;28;20846;-94
2021/10/24 05:16:33;;;;;;;72.37;14.50;;;;;;;;;;5004038;28;20602;-94
2021/10/24 05:19:00;;;;;;;74.07;14.80;;;;;;;;;;4999585;28;20509;-93
2021/10/24 05:21:26;;;;;;;70.67;14.87;;;;;;;;;;5002827;28;20473;-93
2021/10/24 05:23:54;;;;;;;72.30;13.73;;;;;;;;;;5005489;28;20458;-93
2021/10/24 05:26:21;;;;;;;73.90;15.33;;;;;;;;;;5002117;28;20455;-94
2021/10/24 05:28:47;;;;;;;72.20;14.47;;;;;;;;;;5003756;28;20457;-94
2021/10/24 05:31:14;;;;;;;72.17;14.27;;;;;;;;;;5003832;28;20454;-93
2021/10/24 05:33:41;;;;;;;76.93;15.57;;;;;;;;;;5003467;28;20502;-94
2021/10/24 05:36:08;;;;;;;74.37;15.53;;;;;;;;;;4989490;28;20451;-94
2021/10/24 05:38:39;;;;;;;73.60;14.33;;;;;;;;;;5005093;28;20482;-95
2021/10/24 05:41:07;;;;;;;71.17;14.63;;;;;;;;;;5003272;28;20449;-94
2021/10/24 05:43:34;;;;;;;74.17;15.27;;;;;;;;;;5002857;28;20465;-94
2021/10/24 05:46:00;;;;;;;70.43;14.27;;;;;;;;;;5010266;28;20935;-94
2021/10/24 05:48:27;;;;;;;74.00;15.40;;;;;;;;;;5007112;28;20459;-94
2021/10/24 05:51:04;;;;;;;72.50;15.40;;;;;;;;;;5005923;28;20542;-95
2021/10/24 05:53:30;;;;;;;72.40;14.47;;;;;;;;;;5009917;28;20473;-92
2021/10/24 05:55:57;;;;;;;75.00;15.07;;;;;;;;;;5008285;28;20446;-95
2021/10/24 05:58:25;;;;;;;73.17;15.40;;;;;;;;;;4990419;28;20445;-95
2021/10/24 06:00:52;;;;;;;75.10;15.27;;;;;;;;;;5007872;28;20457;-95
2021/10/24 06:03:19;;;;;;;74.03;14.30;;;;;;;;;;5006666;28;20485;-93
2021/10/24 06:05:46;;;;;;;71.10;14.60;;;;;;;;;;5011906;28;20457;-96
2021/10/24 06:08:25;;;;;;;74.57;14.83;;;;;;;;;;5010715;28;20454;-94
2021/10/24 06:10:54;;;;;;;79.87;15.47;;;;;;;;;;5011033;28;20477;-92
2021/10/24 06:13:25;;;;;;;76.80;14.17;;;;;;;;;;5006049;28;20455;-95
2021/10/24 06:15:55;;;;;;;72.43;14.73;;;;;;;;;;5008460;28;20549;-94
2021/10/24 06:18:25;;;;;;;75.50;15.47;;;;;;;;;;5007429;28;20451;-95
2021/10/24 06:20:51;;;;;;;74.23;15.40;;;;;;;;;;5012329;28;20875;-96
2021/10/24 06:23:18;;;;;;;75.63;15.07;;;;;;;;;;5005402;28;20517;-95
2021/10/24 06:25:44;;;;;;;83.80;17.03;;;;;;;;;;5013720;28;20453;-95
2021/10/24 06:28:21;;;;;;;75.67;15.47;;;;;;;;;;5015678;28;20478;-92
2021/10/24 06:30:48;;;;;;;77.10;15.50;;;;;;;;;;5013694;23;20486;-95
2021/10/24 06:33:16;;;;;;;77.43;15.47;;;;;;;;;;5003896;28;20498;-94
2021/10/24 06:35:45;;;;;;;73.03;15.00;;;;;;;;;;5007802;28;20486;-93
2021/10/24 06:38:12;;;;;;;76.60;14.90;;;;;;;;;;4994609;28;20507;-96
2021/10/24 06:40:41;;;;;;;72.70;15.10;;;;;;;;;;5010216;28;20499;-95
2021/10/24 06:43:08;;;;;;;75.90;15.73;;;;;;;;;;5010729;28;20486;-93
2021/10/24 06:45:34;;;;;;;74.03;15.70;;;;;;;;;;5006560;28;20533;-95
2021/10/24 06:48:02;;;;;;;73.87;15.80;;;;;;;;;;5005273;28;20426;-94
2021/10/24 06:50:31;;;;;;;74.00;15.63;;;;;;;;;;5006686;28;20526;-93
2021/10/24 06:53:01;;;;;;;73.10;14.70;;;;;;;;;;5016459;23;20486;-95
2021/10/24 06:55:28;;;;;;;75.60;15.13;;;;;;;;;;5012418;28;20458;-96
2021/10/24 06:57:57;;;;;;;75.47;15.67;;;;;;;;;;5012138;28;20451;-95
2021/10/24 07:00:25;;;;;;;74.30;15.23;;;;;;;;;;5013425;28;20526;-96
2021/10/24 07:02:53;;;;;;;74.60;15.20;;;;;;;;;;5009926;28;20453;-96
2021/10/24 07:05:21;;;;;;;76.87;16.03;;;;;;;;;;5018987;28;20466;-95
2021/10/24 07:07:49;;;;;;;78.43;14.67;;;;;;;;;;5027464;28;20489;-93
2021/10/24 07:10:22;;;;;;;76.27;14.17;;;;;;;;;;5010985;28;20446;-96
2021/10/24 07:13:02;;;;;;;72.17;14.90;;;;;;;;;;5025904;28;20462;-95
2021/10/24 07:15:29;;;;;;;71.27;14.50;;;;;;;;;;5004950;28;20511;-96
2021/10/24 07:18:00;;;;;;;73.20;14.33;;;;;;;;;;5009703;28;20472;-96
2021/10/24 07:20:31;;;;;;;74.33;13.67;;;;;;;;;;5002717;28;20495;-96
2021/10/24 07:23:09;;;;;;;72.07;13.57;;;;;;;;;;4996157;28;20970;-96
2021/10/24 07:25:44;;;;;;;69.87;13.70;;;;;;;;;;5002581;28;20499;-96
2021/10/24 07:28:13;;;;;;;74.00;13.33;;;;;;;;;;4997746;28;20487;-95
2021/10/24 07:30:41;;;;;;;70.80;13.50;;;;;;;;;;5004344;28;20448;-96
2021/10/24 07:33:08;;;;;;;71.30;13.90;;;;;;;;;;5003800;28;20474;-95
2021/10/24 07:35:36;;;;;;;78.10;13.77;;;;;;;;;;5021703;28;20477;-94
2021/10/24 07:40:48;;;;;;;72.93;13.30;;;;;;;;;;5010799;28;20489;-95
2021/10/24 07:43:16;;;;;;;71.63;12.60;;;;;;;;;;4998633;28;21240;-95
2021/10/24 07:45:45;;;;;;;71.57;12.70;;;;;;;;;;5007041;28;20451;-93
2021/10/24 07:48:12;;;;;;;73.27;14.10;;;;;;;;;;4999353;23;20588;-94
2021/10/24 07:50:38;;;;;;;72.43;13.70;;;;;;;;;;4981354;28;20476;-93
2021/10/24 07:53:08;;;;;;;69.20;12.90;;;;;;;;;;4980483;28;20464;-96
2021/10/24 07:55:34;;;;;;;71.07;13.03;;;;;;;;;;4986786;28;20443;-94
2021/10/24 07:58:01;;;;;;;70.27;13.00;;;;;;;;;;4985982;28;20448;-95
2021/10/24 08:00:28;;;;;;;71.33;13.80;;;;;;;;;;4985236;28;20495;-93
2021/10/24 08:02:55;;;;;;;71.53;12.57;;;;;;;;;;4978917;28;20470;-96
2021/10/24 08:05:21;;;;;;;71.67;13.50;;;;;;;;;;4968742;28;20466;-96
2021/10/24 08:07:51;;;;;;;69.33;12.70;;;;;;;;;;4986672;28;20458;-94
2021/10/24 08:10:19;;;;;;;70.40;12.70;;;;;;;;;;4976809;28;20483;-93
2021/10/24 08:12:45;;;;;;;74.03;12.30;;;;;;;;;;4986737;28;20462;-93
2021/10/24 08:15:24;;;;;;;73.93;12.80;;;;;;;;;;4987569;28;20483;-96
2021/10/24 08:17:51;;;;;;;69.57;13.30;;;;;;;;;;4986053;28;20465;-93
2021/10/24 08:22:58;;;;;;;67.70;12.20;;;;;;;;;;4979818;28;20447;-96
2021/10/24 08:25:29;;;;;;;69.57;12.80;;;;;;;;;;4982138;28;20459;-94
2021/10/24 08:33:13;;;;;;;74.57;12.53;;;;;;;;;;4991083;28;20427;-96
2021/10/24 08:35:40;;;;;;;74.13;13.07;;;;;;;;;;4985425;28;20510;-96
2021/10/24 08:38:08;;;;;;;69.13;13.00;;;;;;;;;;4986706;28;20468;-96
2021/10/24 08:40:47;;;;;;;69.00;12.57;;;;;;;;;;5067941;23;20898;-96
2021/10/24 08:43:27;;;;;;;70.00;13.10;;;;;;;;;;4973879;28;21175;-95
2021/10/24 08:45:55;;;;;;;71.77;13.20;;;;;;;;;;4965715;28;20441;-96
2021/10/24 08:48:22;;;;;;;72.60;14.23;;;;;;;;;;5087701;23;20511;-94
2021/10/24 08:50:51;;;;;;;68.47;12.80;;;;;;;;;;4977159;28;20874;-92
2021/10/24 08:53:20;;;;;;;69.60;13.10;;;;;;;;;;4981637;28;20460;-92
2021/10/24 08:55:59;;;;;;;71.77;13.37;;;;;;;;;;4981284;28;21489;-96
2021/10/24 08:58:26;;;;;;;67.33;12.57;;;;;;;;;;5007558;23;22082;-96
2021/10/24 09:00:55;;;;;;;71.30;14.40;;;;;;;;;;5006622;28;20488;-96
2021/10/24 09:06:12;;;;;;;67.30;12.37;;;;;;;;;;5260775;23;20500;-96
2021/10/24 09:08:41;;;;;;;71.40;12.77;;;;;;;;;;5309006;23;21351;-96
2021/10/24 09:11:14;;;;;;;73.07;13.40;;;;;;;;;;5006404;28;20437;-96
2021/10/24 09:16:16;;;;;;;70.80;13.67;;;;;;;;;;5047452;23;20494;-96
2021/10/24 09:18:44;;;;;;;68.97;13.73;;;;;;;;;;5007351;28;20425;-96
2021/10/24 09:21:33;;;;;;;67.07;13.07;;;;;;;;;;5007742;28;20571;-95
2021/10/24 09:24:17;;;;;;;70.80;13.00;;;;;;;;;;5005737;28;20449;-96
2021/10/24 09:26:59;;;;;;;70.20;13.00;;;;;;;;;;5012691;28;20515;-95
2021/10/24 09:29:27;;;;;;;67.37;13.30;;;;;;;;;;5040683;23;20443;-96
2021/10/24 09:31:56;;;;;;;69.90;13.10;;;;;;;;;;5067885;23;20519;-95
2021/10/24 09:37:04;;;;;;;68.37;13.30;;;;;;;;;;5051480;23;20472;-94
2021/10/24 09:39:33;;;;;;;70.70;13.17;;;;;;;;;;5007259;28;20440;-95
2021/10/24 09:42:26;;;;;;;67.80;12.90;;;;;;;;;;5005417;28;20953;-96
2021/10/24 09:45:06;;;;;;;68.43;13.30;;;;;;;;;;5326458;23;20515;-92
2021/10/24 09:47:33;;;;;;;71.00;12.87;;;;;;;;;;5007629;28;21102;-95
2021/10/24 09:55:25;;;;;;;67.00;12.73;;;;;;;;;;5093301;23;20476;-96
2021/10/24 09:57:53;;;;;;;67.27;13.20;;;;;;;;;;5003812;28;20451;-94
2021/10/24 10:00:19;;;;;;;68.67;12.67;;;;;;;;;;5003170;28;20480;-94
2021/10/24 10:02:47;;;;;;;66.50;12.40;;;;;;;;;;5004930;28;20448;-95
2021/10/24 10:05:13;;;;;;;68.90;12.73;;;;;;;;;;5002309;28;20484;-96
2021/10/24 10:07:40;;;;;;;68.47;12.70;;;;;;;;;;4997336;28;20472;-95
2021/10/24 10:10:08;;;;;;;69.07;12.60;;;;;;;;;;5002090;28;20460;-94
2021/10/24 10:12:35;;;;;;;66.20;12.47;;;;;;;;;;5001531;28;20479;-93
2021/10/24 10:15:04;;;;;;;66.47;13.20;;;;;;;;;;5000228;28;20548;-93
2021/10/24 10:17:33;;;;;;;69.73;12.47;;;;;;;;;;5004389;28;20463;-94
2021/10/24 10:20:18;;;;;;;67.17;12.70;;;;;;;;;;5000529;28;20444;-94
2021/10/24 10:23:02;;;;;;;67.97;12.30;;;;;;;;;;5001806;28;20524;-96
2021/10/24 10:25:30;;;;;;;69.67;11.57;;;;;;;;;;5001895;28;20951;-92
2021/10/24 10:28:00;;;;;;;66.37;11.93;;;;;;;;;;5003325;28;20444;-95
2021/10/24 10:30:38;;;;;;;66.33;11.93;;;;;;;;;;5000836;28;20529;-94
2021/10/24 10:33:25;;;;;;;69.23;13.00;;;;;;;;;;5002196;28;20805;-95
2021/10/24 10:35:52;;;;;;;67.47;12.20;;;;;;;;;;4999835;28;20471;-95
2021/10/24 10:38:30;;;;;;;69.23;11.87;;;;;;;;;;5001755;28;20465;-95
2021/10/24 10:40:58;;;;;;;65.30;11.53;;;;;;;;;;5001650;28;20563;-93
2021/10/24 10:43:25;;;;;;;65.10;11.83;;;;;;;;;;5003713;28;20441;-95
2021/10/24 10:45:56;;;;;;;68.47;11.77;;;;;;;;;;5002434;28;20512;-94
2021/10/24 10:48:37;;;;;;;70.07;12.00;;;;;;;;;;5002095;28;20783;-95
2021/10/24 10:51:05;;;;;;;66.97;11.20;;;;;;;;;;4980008;28;20555;-93
2021/10/24 10:53:51;;;;;;;66.80;12.00;;;;;;;;;;5001748;28;20479;-96
2021/10/24 10:56:19;;;;;;;65.87;12.17;;;;;;;;;;5002308;28;20445;-95
2021/10/24 10:58:47;;;;;;;67.40;12.10;;;;;;;;;;4997555;28;20499;-95
2021/10/24 11:01:30;;;;;;;67.60;11.70;;;;;;;;;;5003444;28;20496;-95
2021/10/24 11:03:58;;;;;;;68.07;11.73;;;;;;;;;;4999322;28;20451;-95
2021/10/24 11:06:44;;;;;;;68.10;12.50;;;;;;;;;;5000005;28;20525;-94
2021/10/24 11:09:11;;;;;;;66.00;10.73;;;;;;;;;;5011571;23;20507;-94
2021/10/24 11:11:56;;;;;;;66.67;11.90;;;;;;;;;;4990377;28;20465;-94
2021/10/24 11:14:45;;;;;;;66.73;12.27;;;;;;;;;;4990263;28;20947;-93
2021/10/24 11:17:27;;;;;;;65.17;11.60;;;;;;;;;;4996991;28;20429;-95
2021/10/24 11:19:55;;;;;;;66.00;11.57;;;;;;;;;;4994189;28;20509;-95
2021/10/24 11:22:22;;;;;;;65.17;11.93;;;;;;;;;;4992041;28;20556;-94
2021/10/24 11:24:50;;;;;;;70.40;11.70;;;;;;;;;;4996378;28;20425;-93
2021/10/24 11:27:17;;;;;;;65.27;12.03;;;;;;;;;;5000517;28;20450;-95
2021/10/24 11:29:47;;;;;;;66.27;11.60;;;;;;;;;;5000256;28;20437;-95
2021/10/24 11:32:18;;;;;;;68.23;11.40;;;;;;;;;;4991429;28;20481;-93
2021/10/24 11:34:44;;;;;;;67.50;11.73;;;;;;;;;;4992089;28;20936;-92
2021/10/24 11:37:12;;;;;;;66.43;12.23;;;;;;;;;;4988535;28;20520;-96
2021/10/24 11:39:39;;;;;;;67.07;11.83;;;;;;;;;;4995312;28;20458;-94
2021/10/24 11:42:10;;;;;;;67.40;12.40;;;;;;;;;;4993564;28;20545;-91
2021/10/24 11:44:36;;;;;;;65.07;11.80;;;;;;;;;;4994598;28;20512;-91
2021/10/24 11:47:06;;;;;;;64.70;11.50;;;;;;;;;;4991975;28;20489;-93
2021/10/24 11:49:42;;;;;;;67.00;11.93;;;;;;;;;;4990898;28;20445;-93
2021/10/24 11:52:08;;;;;;;68.60;12.33;;;;;;;;;;4985076;28;20943;-94
2021/10/24 11:54:57;;;;;;;71.53;12.60;;;;;;;;;;4991809;28;20448;-92
2021/10/24 11:57:35;;;;;;;71.60;11.90;;;;;;;;;;4992684;28;20461;-95
2021/10/24 12:00:18;;;;;;;68.40;12.33;;;;;;;;;;4991678;28;20497;-93
2021/10/24 12:02:55;;;;;;;67.67;12.30;;;;;;;;;;4990083;28;20434;-92
2021/10/24 12:05:34;;;;;;;66.67;12.50;;;;;;;;;;4989084;28;20441;-92
2021/10/24 12:08:01;;;;;;;67.17;12.13;;;;;;;;;;4988827;28;20485;-93
2021/10/24 12:10:36;;;;;;;67.37;12.13;;;;;;;;;;4996273;28;20500;-91
2021/10/24 12:13:03;;;;;;;71.07;12.83;;;;;;;;;;5003039;28;20539;-94
2021/10/24 12:15:36;;;;;;;67.10;11.90;;;;;;;;;;5003479;28;20437;-91
2021/10/24 12:18:11;;;;;;;67.30;12.33;;;;;;;;;;5000742;28;20468;-92
2021/10/24 12:20:38;;;;;;;66.90;12.00;;;;;;;;;;4999875;28;20483;-96
2021/10/24 12:23:05;;;;;;;67.47;11.77;;;;;;;;;;5002547;28;20455;-92
2021/10/24 12:25:48;;;;;;;65.00;12.30;;;;;;;;;;5002302;28;20512;-94
2021/10/24 12:28:18;;;;;;;65.43;11.77;;;;;;;;;;4998863;28;20484;-94
2021/10/24 12:30:48;;;;;;;65.20;12.00;;;;;;;;;;5000496;28;20439;-95
2021/10/24 12:33:25;;;;;;;65.10;11.67;;;;;;;;;;5001365;28;20448;-93
2021/10/24 12:35:54;;;;;;;67.40;12.30;;;;;;;;;;5001377;28;20467;-93
2021/10/24 12:38:20;;;;;;;66.87;12.20;;;;;;;;;;5001808;28;20468;-95
2021/10/24 12:40:58;;;;;;;65.47;12.17;;;;;;;;;;5000808;28;20472;-95
2021/10/24 12:43:27;;;;;;;68.53;11.80;;;;;;;;;;5002002;28;20472;-94
2021/10/24 12:45:58;;;;;;;65.30;12.60;;;;;;;;;;5003396;28;20449;-93
2021/10/24 12:48:37;;;;;;;68.03;12.30;;;;;;;;;;5000988;28;20445;-95
2021/10/24 12:51:19;;;;;;;64.77;11.47;;;;;;;;;;4998897;28;20453;-93
2021/10/24 12:53:46;;;;;;;65.77;12.60;;;;;;;;;;4997533;28;20460;-95
2021/10/24 12:56:14;;;;;;;65.80;11.67;;;;;;;;;;5001267;28;20436;-92
2021/10/24 12:58:40;;;;;;;66.10;11.97;;;;;;;;;;4998219;28;20496;-96
2021/10/24 13:01:06;;;;;;;65.17;11.40;;;;;;;;;;5002203;28;20512;-94
2021/10/24 13:03:33;;;;;;;67.00;11.43;;;;;;;;;;5005257;28;20460;-94
2021/10/24 13:06:03;;;;;;;67.47;12.40;;;;;;;;;;5003182;28;20507;-96
2021/10/24 13:08:30;;;;;;;66.00;12.53;;;;;;;;;;4998227;28;20460;-94
2021/10/24 13:10:56;;;;;;;64.90;12.00;;;;;;;;;;4993285;28;20483;-94
2021/10/24 13:13:27;;;;;;;70.17;12.67;;;;;;;;;;4991580;28;20469;-95
2021/10/24 13:15:59;;;;;;;65.67;12.33;;;;;;;;;;4991134;28;20553;-96
2021/10/24 13:18:26;;;;;;;67.07;12.60;;;;;;;;;;4994637;28;20458;-94
2021/10/24 13:20:58;;;;;;;66.57;12.30;;;;;;;;;;4991900;28;20492;-96
2021/10/24 13:23:24;;;;;;;69.97;13.20;;;;;;;;;;4990120;28;20572;-92
2021/10/24 13:25:51;;;;;;;65.20;12.33;;;;;;;;;;4990206;28;20453;-94
2021/10/24 13:28:19;;;;;;;66.57;12.37;;;;;;;;;;4991169;28;20512;-95
2021/10/24 13:30:47;;;;;;;66.30;12.17;;;;;;;;;;4974700;28;20472;-92
2021/10/24 13:33:15;;;;;;;66.30;12.70;;;;;;;;;;4991390;28;20501;-95
2021/10/24 13:35:42;;;;;;;72.53;11.87;;;;;;;;;;4989257;28;20449;-95
2021/10/24 13:38:10;;;;;;;67.17;12.53;;;;;;;;;;4988370;28;20469;-96
2021/10/24 13:40:37;;;;;;;66.27;12.23;;;;;;;;;;4987596;28;20448;-92
2021/10/24 13:43:04;;;;;;;64.57;12.30;;;;;;;;;;4991435;28;20485;-96
2021/10/24 13:45:32;;;;;;;65.80;12.03;;;;;;;;;;5001487;28;20444;-96
2021/10/24 13:48:09;;;;;;;66.97;12.27;;;;;;;;;;4999385;28;20497;-96
2021/10/24 13:53:46;;;;;;;66.87;12.40;;;;;;;;;;4991053;28;20455;-95
2021/10/24 13:56:12;;;;;;;66.27;12.40;;;;;;;;;;4995928;28;20423;-93
2021/10/24 13:58:49;;;;;;;67.40;11.90;;;;;;;;;;4999922;28;20461;-96
2021/10/24 14:01:16;;;;;;;67.27;11.90;;;;;;;;;;4994853;28;20481;-95
2021/10/24 14:06:40;;;;;;;65.87;12.10;;;;;;;;;;4985611;26;20497;-96
2021/10/24 14:09:09;;;;;;;65.47;12.20;;;;;;;;;;4988462;28;20473;-95
2021/10/24 14:11:35;;;;;;;65.10;12.07;;;;;;;;;;4975352;28;20438;-94
2021/10/24 14:14:02;;;;;;;67.63;12.20;;;;;;;;;;4980882;28;20442;-93
2021/10/24 14:16:34;;;;;;;65.87;12.57;;;;;;;;;;4981965;28;20446;-95
2021/10/24 14:19:02;;;;;;;66.87;13.10;;;;;;;;;;4984156;28;20524;-92
2021/10/24 14:21:30;;;;;;;65.93;12.17;;;;;;;;;;4984474;28;20485;-93
2021/10/24 14:23:57;;;;;;;67.10;12.13;;;;;;;;;;4981802;28;20462;-93
2021/10/24 14:26:29;;;;;;;66.23;12.00;;;;;;;;;;4984155;28;20450;-94
2021/10/24 14:28:59;;;;;;;69.97;12.80;;;;;;;;;;4989377;28;20458;-94
2021/10/24 14:31:29;;;;;;;65.40;11.87;;;;;;;;;;4989739;28;20422;-95
2021/10/24 14:36:38;;;;;;;66.60;12.23;;;;;;;;;;4981700;28;20526;-94
2021/10/24 14:39:05;;;;;;;69.00;12.60;;;;;;;;;;4982804;28;20489;-95
2021/10/24 14:41:31;;;;;;;67.27;12.93;;;;;;;;;;4986457;28;20485;-96
2021/10/24 14:43:58;;;;;;;68.57;12.07;;;;;;;;;;4985175;28;20453;-93
2021/10/24 14:46:34;;;;;;;66.07;12.00;;;;;;;;;;4984406;28;20513;-96
2021/10/24 14:49:00;;;;;;;65.37;12.40;;;;;;;;;;4983604;28;20434;-94
2021/10/24 14:51:35;;;;;;;65.17;12.27;;;;;;;;;;4987504;28;20450;-94
2021/10/24 14:54:03;;;;;;;66.50;12.40;;;;;;;;;;4988098;23;20515;-95
2021/10/24 14:56:30;;;;;;;68.40;12.13;;;;;;;;;;4983253;28;20450;-95
2021/10/24 14:58:59;;;;;;;67.37;11.77;;;;;;;;;;4987050;28;20442;-96
2021/10/24 15:01:26;;;;;;;65.53;11.87;;;;;;;;;;4982229;28;20485;-94